createdAt,value
2022-10-02T00:01:55.723Z,98.91
2022-10-02T00:04:27.450Z,98.29
2022-10-02T00:07:01.446Z,98.04
2022-10-02T00:09:33.073Z,97.71
2022-10-02T00:12:01.165Z,97.61
2022-10-02T00:14:35.074Z,96.95
2022-10-02T00:17:03.625Z,97.48
2022-10-02T00:19:30.588Z,97.68
2022-10-02T00:22:11.292Z,98.11
2022-10-02T00:24:43.920Z,98.16
2022-10-02T00:27:21.962Z,98.52
2022-10-02T00:29:51.741Z,98.96
2022-10-02T00:32:28.376Z,98.63
2022-10-02T00:35:36.927Z,98.68
2022-10-02T00:38:16.269Z,98.75
2022-10-02T00:41:01.029Z,98.96
2022-10-02T00:43:36.634Z,99.36
2022-10-02T00:46:21.981Z,99.88
2022-10-02T00:48:59.525Z,99.23
2022-10-02T00:51:44.990Z,99.62
2022-10-02T00:54:37.920Z,98.95
2022-10-02T00:57:15.184Z,98.92
2022-10-02T00:59:51.974Z,99.03
2022-10-02T01:02:58.087Z,99.39
2022-10-02T01:05:27.418Z,99.53
2022-10-02T01:07:55.534Z,99.62
2022-10-02T01:10:27.779Z,99.46
2022-10-02T01:12:56.186Z,99.62
2022-10-02T01:15:27.935Z,100.00
2022-10-02T01:17:56.022Z,98.67
2022-10-02T01:20:35.285Z,98.44
2022-10-02T01:23:09.305Z,98.41
2022-10-02T01:25:37.887Z,98.34
2022-10-02T01:28:05.779Z,97.99
2022-10-02T01:30:35.855Z,97.28
2022-10-02T01:33:04.822Z,95.99
2022-10-02T01:35:35.572Z,95.83
2022-10-02T01:38:07.763Z,96.25
2022-10-02T01:40:37.787Z,96.14
2022-10-02T01:43:08.360Z,95.80
2022-10-02T01:45:53.003Z,96.08
2022-10-02T01:48:32.256Z,96.09
2022-10-02T01:51:13.211Z,96.51
2022-10-02T01:53:47.452Z,97.10
2022-10-02T01:56:23.253Z,97.59
2022-10-02T01:58:59.355Z,97.84
2022-10-02T02:01:40.516Z,98.18
2022-10-02T02:04:19.250Z,97.95
2022-10-02T02:06:54.126Z,98.24
2022-10-02T02:09:28.353Z,98.37
2022-10-02T02:12:01.977Z,98.40
2022-10-02T02:14:31.831Z,98.71
2022-10-02T02:17:06.429Z,98.49
2022-10-02T02:19:38.690Z,98.35
2022-10-02T02:22:12.170Z,97.55
2022-10-02T02:24:43.012Z,97.73
2022-10-02T02:27:18.159Z,97.56
2022-10-02T02:29:46.550Z,97.44
2022-10-02T02:32:17.210Z,97.24
2022-10-02T02:34:48.063Z,97.07
2022-10-02T02:37:20.171Z,97.19
2022-10-02T02:39:52.484Z,97.56
2022-10-02T02:42:26.264Z,97.67
2022-10-02T02:44:57.942Z,97.51
2022-10-02T02:47:29.249Z,97.51
2022-10-02T02:50:02.060Z,97.82
2022-10-02T02:52:33.888Z,97.33
2022-10-02T02:55:08.687Z,97.93
2022-10-02T02:57:43.969Z,97.82
2022-10-02T03:00:14.526Z,97.72
2022-10-02T03:02:41.338Z,98.08
2022-10-02T03:05:13.521Z,97.01
2022-10-02T03:07:42.423Z,97.10
2022-10-02T03:10:16.394Z,96.88
2022-10-02T03:12:55.685Z,96.65
2022-10-02T03:15:28.707Z,96.58
2022-10-02T03:18:07.355Z,96.62
2022-10-02T03:20:41.802Z,96.59
2022-10-02T03:23:17.112Z,96.89
2022-10-02T03:25:51.014Z,97.10
2022-10-02T03:28:50.587Z,97.13
2022-10-02T03:31:14.548Z,96.97
2022-10-02T03:33:43.928Z,97.59
2022-10-02T03:36:12.217Z,96.71
2022-10-02T03:38:40.472Z,96.46
2022-10-02T03:41:07.576Z,96.60
2022-10-02T03:43:35.739Z,96.32
2022-10-02T03:46:02.631Z,96.46
2022-10-02T03:48:29.665Z,96.61
2022-10-02T03:50:56.436Z,96.14
2022-10-02T03:53:29.303Z,97.68
2022-10-02T03:56:03.010Z,97.00
2022-10-02T03:58:30.141Z,96.91
2022-10-02T04:01:04.577Z,96.56
2022-10-02T04:03:35.274Z,97.07
2022-10-02T04:06:06.234Z,96.84
2022-10-02T04:08:37.050Z,97.00
2022-10-02T04:11:11.572Z,96.59
2022-10-02T04:13:41.929Z,97.12
2022-10-02T04:16:15.673Z,97.16
2022-10-02T04:18:50.582Z,97.59
2022-10-02T04:21:29.994Z,98.07
2022-10-02T04:24:03.615Z,97.64
2022-10-02T04:26:35.636Z,96.47
2022-10-02T04:29:09.104Z,95.52
2022-10-02T04:31:37.361Z,96.54
2022-10-02T04:34:10.289Z,96.21
2022-10-02T04:36:48.019Z,97.88
2022-10-02T04:39:36.153Z,97.96
2022-10-02T04:42:21.600Z,98.79
2022-10-02T04:45:14.905Z,98.98
2022-10-02T04:48:07.325Z,99.19
2022-10-02T04:50:46.744Z,99.19
2022-10-02T04:53:33.225Z,100.00
2022-10-02T04:56:29.614Z,99.59
2022-10-02T04:59:07.892Z,100.00
2022-10-02T05:01:54.878Z,100.00
2022-10-02T05:04:40.832Z,100.00
2022-10-02T05:07:25.180Z,100.00
2022-10-02T05:10:01.943Z,100.00
2022-10-02T05:12:45.241Z,100.00
2022-10-02T05:15:33.582Z,100.00
2022-10-02T05:18:20.904Z,100.00
2022-10-02T05:21:07.516Z,100.00
2022-10-02T05:23:46.446Z,100.00
2022-10-02T05:26:40.807Z,100.00
2022-10-02T05:29:24.465Z,100.00
2022-10-02T05:32:06.671Z,100.00
2022-10-02T05:34:49.949Z,100.00
2022-10-02T05:37:40.290Z,100.00
2022-10-02T05:40:17.390Z,100.00
2022-10-02T05:42:52.921Z,100.00
2022-10-02T05:45:22.997Z,100.00
2022-10-02T05:47:50.913Z,100.00
2022-10-02T05:50:20.225Z,100.00
2022-10-02T05:52:56.259Z,100.00
2022-10-02T05:55:30.291Z,100.00
2022-10-02T05:58:03.343Z,100.00
2022-10-02T06:00:36.983Z,100.00
2022-10-02T06:03:12.901Z,100.00
2022-10-02T06:05:47.629Z,100.00
2022-10-02T06:08:21.796Z,100.00
2022-10-02T06:10:52.291Z,100.00
2022-10-02T06:13:25.081Z,100.00
2022-10-02T06:15:56.918Z,100.00
2022-10-02T06:18:29.353Z,100.00
2022-10-02T06:21:01.809Z,100.00
2022-10-02T06:23:35.819Z,100.00
2022-10-02T06:26:05.705Z,100.00
2022-10-02T06:28:38.044Z,99.75
2022-10-02T06:31:10.671Z,100.00
2022-10-02T06:33:37.970Z,99.96
2022-10-02T06:36:37.729Z,99.76
2022-10-02T06:39:23.957Z,99.97
2022-10-02T06:41:59.632Z,99.69
2022-10-02T06:44:36.151Z,98.39
2022-10-02T06:47:14.853Z,96.79
2022-10-02T06:50:01.154Z,97.19
2022-10-02T06:52:41.578Z,96.56
2022-10-02T06:55:27.046Z,95.52
2022-10-02T06:58:05.822Z,95.50
2022-10-02T07:00:39.286Z,95.56
2022-10-02T07:03:40.946Z,95.92
2022-10-02T07:06:23.182Z,95.46
2022-10-02T07:09:06.306Z,95.21
2022-10-02T07:11:44.589Z,94.57
2022-10-02T07:14:28.087Z,94.60
2022-10-02T07:17:13.132Z,95.20
2022-10-02T07:20:02.660Z,95.59
2022-10-02T07:22:49.437Z,96.10
2022-10-02T07:25:59.408Z,95.63
2022-10-02T07:28:39.647Z,95.10
2022-10-02T07:31:18.995Z,94.92
2022-10-02T07:34:06.552Z,94.93
2022-10-02T07:36:44.965Z,94.57
2022-10-02T07:39:23.548Z,94.67
2022-10-02T07:42:15.943Z,93.77
2022-10-02T07:45:07.794Z,94.12
2022-10-02T07:47:51.088Z,93.20
2022-10-02T07:50:23.829Z,93.16
2022-10-02T07:53:02.651Z,93.22
2022-10-02T07:55:30.038Z,93.46
2022-10-02T07:58:05.638Z,93.66
2022-10-02T08:00:39.845Z,93.46
2022-10-02T08:03:12.846Z,92.63
2022-10-02T08:05:43.107Z,93.31
2022-10-02T08:08:16.948Z,93.18
2022-10-02T08:10:48.911Z,93.35
2022-10-02T08:13:20.658Z,92.74
2022-10-02T08:15:54.971Z,91.71
2022-10-02T08:18:34.543Z,90.85
2022-10-02T08:21:03.591Z,90.63
2022-10-02T08:23:37.784Z,90.33
2022-10-02T08:26:11.457Z,89.90
2022-10-02T08:28:43.871Z,90.03
2022-10-02T08:31:13.464Z,89.93
2022-10-02T08:33:40.543Z,89.38
2022-10-02T08:36:43.656Z,89.64
2022-10-02T08:39:26.961Z,88.92
2022-10-02T08:42:30.173Z,88.76
2022-10-02T08:45:15.415Z,88.99
2022-10-02T08:48:22.710Z,87.39
2022-10-02T08:51:33.325Z,86.44
2022-10-02T08:54:38.417Z,86.42
2022-10-02T08:57:41.298Z,86.38
2022-10-02T09:00:17.454Z,86.53
2022-10-02T09:03:20.449Z,84.89
2022-10-02T09:06:16.900Z,83.84
2022-10-02T09:09:26.357Z,84.15
2022-10-02T09:12:30.574Z,82.78
2022-10-02T09:15:06.552Z,82.29
2022-10-02T09:18:07.926Z,82.57
2022-10-02T09:20:54.362Z,82.36
2022-10-02T09:24:12.760Z,80.35
2022-10-02T09:27:10.056Z,80.63
2022-10-02T09:30:16.445Z,79.58
2022-10-02T09:33:20.710Z,80.38
2022-10-02T09:36:13.741Z,79.98
2022-10-02T09:39:13.753Z,78.92
2022-10-02T09:42:17.331Z,79.42
2022-10-02T09:45:15.189Z,74.42
2022-10-02T09:48:15.808Z,67.00
2022-10-02T09:51:06.612Z,62.45
2022-10-02T09:54:10.184Z,56.42
2022-10-02T09:57:13.164Z,58.72
2022-10-02T10:00:04.244Z,62.39
2022-10-02T10:03:39.774Z,61.10
2022-10-02T10:06:26.235Z,58.57
2022-10-02T10:09:19.772Z,61.70
2022-10-02T10:12:20.654Z,62.19
2022-10-02T10:15:11.688Z,66.84
2022-10-02T10:18:19.508Z,67.10
2022-10-02T10:21:08.296Z,68.56
2022-10-02T10:24:06.436Z,65.82
2022-10-02T10:27:08.748Z,60.98
2022-10-02T10:30:01.287Z,64.77
2022-10-02T10:33:01.380Z,64.58
2022-10-02T10:35:59.148Z,64.04
2022-10-02T10:38:52.343Z,64.15
2022-10-02T10:41:49.134Z,67.40
2022-10-02T10:44:45.117Z,68.42
2022-10-02T10:47:44.398Z,61.67
2022-10-02T10:50:37.239Z,56.32
2022-10-02T10:53:30.768Z,53.09
2022-10-02T10:56:32.664Z,51.54
2022-10-02T10:59:27.199Z,49.36
2022-10-02T11:02:14.707Z,51.37
2022-10-02T11:04:58.483Z,47.42
2022-10-02T11:07:43.694Z,46.99
2022-10-02T11:10:31.207Z,43.87
2022-10-02T11:13:09.873Z,47.81
2022-10-02T11:15:59.436Z,49.42
2022-10-02T11:19:03.621Z,51.62
2022-10-02T11:21:44.481Z,53.50
2022-10-02T11:24:42.108Z,55.43
2022-10-02T11:27:23.526Z,56.84
2022-10-02T11:30:17.962Z,56.82
2022-10-02T11:32:58.168Z,58.48
2022-10-02T11:35:37.242Z,58.38
2022-10-02T11:38:29.699Z,61.05
2022-10-02T11:41:20.914Z,60.91
2022-10-02T11:44:13.034Z,63.00
2022-10-02T11:47:08.059Z,64.27
2022-10-02T11:50:20.532Z,65.72
2022-10-02T11:53:19.217Z,65.77
2022-10-02T11:56:06.827Z,65.84
2022-10-02T11:58:47.009Z,66.41
2022-10-02T12:01:22.326Z,67.43
2022-10-02T12:03:58.585Z,67.28
2022-10-02T12:06:48.249Z,70.06
2022-10-02T12:09:22.869Z,69.05
2022-10-02T12:12:06.896Z,67.56
2022-10-02T12:14:42.991Z,67.25
2022-10-02T12:17:40.832Z,67.81
2022-10-02T12:20:40.656Z,66.67
2022-10-02T12:23:42.043Z,67.40
2022-10-02T12:26:40.439Z,67.57
2022-10-02T12:29:17.132Z,67.99
2022-10-02T12:31:53.217Z,67.80
2022-10-02T12:34:38.412Z,67.94
2022-10-02T12:37:13.750Z,67.79
2022-10-02T12:39:47.836Z,67.07
2022-10-02T12:42:51.092Z,66.36
2022-10-02T12:45:44.506Z,65.86
2022-10-02T12:48:26.701Z,68.74
2022-10-02T12:51:20.391Z,69.99
2022-10-02T12:54:23.344Z,70.84
2022-10-02T12:57:41.975Z,70.90
2022-10-02T13:00:14.916Z,71.06
2022-10-02T13:03:14.025Z,70.35
2022-10-02T13:06:29.756Z,70.25
2022-10-02T13:09:12.391Z,68.74
2022-10-02T13:12:01.515Z,67.43
2022-10-02T13:14:44.700Z,68.36
2022-10-02T13:17:26.310Z,68.96
2022-10-02T13:20:03.572Z,69.75
2022-10-02T13:22:40.962Z,70.02
2022-10-02T13:25:34.727Z,69.06
2022-10-02T13:28:17.424Z,69.00
2022-10-02T13:30:53.558Z,69.72
2022-10-02T13:33:33.833Z,68.85
2022-10-02T13:36:12.044Z,69.30
2022-10-02T13:38:53.601Z,69.91
2022-10-02T13:41:33.558Z,70.68
2022-10-02T13:44:12.279Z,70.25
2022-10-02T13:46:54.873Z,70.69
2022-10-02T13:49:38.086Z,69.91
2022-10-02T13:52:15.661Z,71.05
2022-10-02T13:54:53.200Z,71.01
2022-10-02T13:57:36.491Z,70.46
2022-10-02T14:00:10.549Z,70.88
2022-10-02T14:02:58.007Z,70.26
2022-10-02T14:05:37.289Z,71.32
2022-10-02T14:08:17.994Z,70.09
2022-10-02T14:10:59.509Z,69.12
2022-10-02T14:13:43.552Z,67.51
2022-10-02T14:16:30.756Z,70.46
2022-10-02T14:19:24.470Z,68.66
2022-10-02T14:22:03.280Z,69.46
2022-10-02T14:25:00.647Z,71.53
2022-10-02T14:28:04.414Z,71.89
2022-10-02T14:30:42.394Z,69.08
2022-10-02T14:33:19.026Z,69.21
2022-10-02T14:35:58.284Z,69.10
2022-10-02T14:38:41.648Z,70.74
2022-10-02T14:41:45.090Z,70.64
2022-10-02T14:44:40.833Z,72.24
2022-10-02T14:47:18.956Z,72.25
2022-10-02T14:50:15.154Z,71.73
2022-10-02T14:52:56.188Z,73.12
2022-10-02T14:55:33.339Z,72.92
2022-10-02T14:58:27.064Z,73.86
2022-10-02T15:01:11.313Z,75.07
2022-10-02T15:04:13.710Z,75.92
2022-10-02T15:06:53.675Z,77.12
2022-10-02T15:09:24.305Z,77.51
2022-10-02T15:12:18.771Z,77.53
2022-10-02T15:15:02.975Z,78.75
2022-10-02T15:17:56.620Z,75.98
2022-10-02T15:20:33.870Z,76.98
2022-10-02T15:23:02.299Z,77.76
2022-10-02T15:25:49.743Z,77.57
2022-10-02T15:28:36.354Z,77.67
2022-10-02T15:31:13.863Z,77.08
2022-10-02T15:33:46.274Z,77.26
2022-10-02T15:36:26.296Z,77.23
2022-10-02T15:39:14.114Z,76.26
2022-10-02T15:41:47.254Z,76.76
2022-10-02T15:44:54.955Z,77.50
2022-10-02T15:47:38.287Z,78.10
2022-10-02T15:50:20.971Z,78.25
2022-10-02T15:52:59.584Z,77.78
2022-10-02T15:55:37.474Z,77.30
2022-10-02T15:58:30.418Z,77.47
2022-10-02T16:01:14.653Z,79.21
2022-10-02T16:03:48.260Z,78.04
2022-10-02T16:06:33.116Z,79.27
2022-10-02T16:09:38.671Z,77.83
2022-10-02T16:12:26.570Z,78.88
2022-10-02T16:15:03.308Z,78.77
2022-10-02T16:17:52.243Z,79.55
2022-10-02T16:20:37.760Z,79.50
2022-10-02T16:23:26.363Z,80.18
2022-10-02T16:26:14.043Z,79.79
2022-10-02T16:28:55.112Z,80.23
2022-10-02T16:31:38.787Z,79.27
2022-10-02T16:34:16.883Z,79.79
2022-10-02T16:36:51.539Z,79.69
2022-10-02T16:39:47.157Z,80.13
2022-10-02T16:42:21.191Z,79.98
2022-10-02T16:45:13.977Z,81.48
2022-10-02T16:47:48.098Z,80.78
2022-10-02T16:50:22.844Z,80.40
2022-10-02T16:52:57.634Z,81.67
2022-10-02T16:55:32.846Z,81.41
2022-10-02T16:58:08.333Z,82.11
2022-10-02T17:00:49.231Z,82.17
2022-10-02T17:03:25.736Z,82.67
2022-10-02T17:05:59.475Z,82.57
2022-10-02T17:08:35.814Z,83.84
2022-10-02T17:11:14.585Z,83.80
2022-10-02T17:13:54.256Z,83.62
2022-10-02T17:16:27.707Z,84.20
2022-10-02T17:18:59.374Z,84.08
2022-10-02T17:21:31.616Z,84.17
2022-10-02T17:24:23.874Z,84.92
2022-10-02T17:27:03.013Z,85.18
2022-10-02T17:29:39.102Z,84.77
2022-10-02T17:32:09.426Z,85.57
2022-10-02T17:34:47.078Z,85.30
2022-10-02T17:37:48.363Z,85.68
2022-10-02T17:40:20.177Z,86.09
2022-10-02T17:42:56.887Z,86.06
2022-10-02T17:45:36.701Z,85.99
2022-10-02T17:48:23.533Z,85.39
2022-10-02T17:51:47.546Z,84.87
2022-10-02T17:54:38.594Z,85.63
2022-10-02T17:57:21.603Z,84.91
2022-10-02T18:00:13.603Z,85.14
2022-10-02T18:03:18.807Z,85.51
2022-10-02T18:06:10.689Z,84.94
2022-10-02T18:08:58.354Z,85.20
2022-10-02T18:11:51.619Z,85.59
2022-10-02T18:14:31.832Z,86.26
2022-10-02T18:17:15.609Z,85.85
2022-10-02T18:19:57.261Z,86.36
2022-10-02T18:22:45.104Z,86.21
2022-10-02T18:25:46.080Z,86.72
2022-10-02T18:28:33.162Z,86.76
2022-10-02T18:31:14.527Z,86.71
2022-10-02T18:34:07.031Z,87.13
2022-10-02T18:36:50.656Z,87.21
2022-10-02T18:39:26.170Z,87.83
2022-10-02T18:41:56.850Z,87.88
2022-10-02T18:44:45.732Z,88.18
2022-10-02T18:47:26.637Z,88.26
2022-10-02T18:50:05.265Z,88.20
2022-10-02T18:52:47.381Z,88.66
2022-10-02T18:55:52.046Z,89.79
2022-10-02T18:58:32.950Z,90.23
2022-10-02T19:01:20.301Z,89.84
2022-10-02T19:04:06.563Z,89.34
2022-10-02T19:06:45.999Z,90.48
2022-10-02T19:09:21.062Z,89.99
2022-10-02T19:11:56.352Z,90.00
2022-10-02T19:14:35.243Z,90.03
2022-10-02T19:17:05.064Z,89.82
2022-10-02T19:19:33.288Z,89.77
2022-10-02T19:22:09.737Z,90.35
2022-10-02T19:24:39.874Z,90.45
2022-10-02T19:27:13.996Z,90.30
2022-10-02T19:29:46.397Z,90.61
2022-10-02T19:32:18.569Z,90.91
2022-10-02T19:34:49.829Z,91.01
2022-10-02T19:37:18.799Z,90.15
2022-10-02T19:39:52.025Z,89.90
2022-10-02T19:42:24.819Z,90.16
2022-10-02T19:44:56.943Z,90.34
2022-10-02T19:47:29.467Z,90.08
2022-10-02T19:49:58.703Z,90.35
2022-10-02T19:52:43.731Z,90.58
2022-10-02T19:55:22.658Z,90.98
2022-10-02T19:57:51.651Z,90.39
2022-10-02T20:00:20.283Z,90.74
2022-10-02T20:02:49.235Z,90.58
2022-10-02T20:05:20.739Z,90.93
2022-10-02T20:07:52.366Z,90.86
2022-10-02T20:10:25.267Z,92.19
2022-10-02T20:12:56.087Z,91.09
2022-10-02T20:15:45.471Z,91.39
2022-10-02T20:18:14.615Z,91.28
2022-10-02T20:20:44.748Z,91.17
2022-10-02T20:23:19.507Z,90.96
2022-10-02T20:25:50.834Z,91.16
2022-10-02T20:28:24.095Z,91.33
2022-10-02T20:30:55.316Z,91.39
2022-10-02T20:33:26.686Z,91.92
2022-10-02T20:36:01.717Z,91.13
2022-10-02T20:38:36.129Z,91.12
2022-10-02T20:41:11.700Z,90.95
2022-10-02T20:43:45.085Z,91.75
2022-10-02T20:46:34.028Z,91.51
2022-10-02T20:49:27.891Z,91.51
2022-10-02T20:52:24.514Z,90.77
2022-10-02T20:54:59.556Z,91.69
2022-10-02T20:58:01.047Z,91.33
2022-10-02T21:00:42.551Z,91.90
2022-10-02T21:03:25.988Z,91.99
2022-10-02T21:06:35.648Z,92.92
2022-10-02T21:09:36.551Z,91.89
2022-10-02T21:12:46.348Z,92.15
2022-10-02T21:15:41.178Z,92.81
2022-10-02T21:18:32.481Z,92.78
2022-10-02T21:21:23.085Z,93.65
2022-10-02T21:24:09.518Z,93.06
2022-10-02T21:27:12.678Z,93.20
2022-10-02T21:30:14.693Z,93.22
2022-10-02T21:33:02.470Z,93.45
2022-10-02T21:35:36.647Z,93.13
2022-10-02T21:38:27.921Z,93.40
2022-10-02T21:41:41.002Z,93.66
2022-10-02T21:44:37.517Z,93.85
2022-10-02T21:47:57.649Z,93.56
2022-10-02T21:51:01.635Z,94.03
2022-10-02T21:53:59.707Z,94.55
2022-10-02T21:57:26.460Z,95.02
2022-10-02T22:00:14.300Z,94.16
2022-10-02T22:03:19.454Z,93.93
2022-10-02T22:06:19.511Z,94.23
2022-10-02T22:08:59.634Z,95.03
2022-10-02T22:11:38.963Z,95.24
2022-10-02T22:14:10.676Z,95.03
2022-10-02T22:16:50.049Z,95.22
2022-10-02T22:19:36.488Z,94.85
2022-10-02T22:22:18.626Z,96.25
2022-10-02T22:25:03.895Z,95.77
2022-10-02T22:27:54.610Z,97.20
2022-10-02T22:30:24.975Z,96.63
2022-10-02T22:33:12.358Z,97.18
2022-10-02T22:36:18.941Z,96.68
2022-10-02T22:38:50.429Z,96.17
2022-10-02T22:41:24.705Z,96.52
2022-10-02T22:43:55.098Z,95.74
2022-10-02T22:46:31.308Z,96.79
2022-10-02T22:49:04.768Z,97.11
2022-10-02T22:51:40.492Z,97.55
2022-10-02T22:54:18.334Z,96.88
2022-10-02T22:56:53.236Z,96.72
2022-10-02T22:59:25.160Z,96.20
2022-10-02T23:01:58.479Z,96.25
2022-10-02T23:04:32.614Z,96.15
2022-10-02T23:07:12.639Z,96.11
2022-10-02T23:09:48.660Z,96.11
2022-10-02T23:12:25.407Z,95.92
2022-10-02T23:15:03.066Z,95.73
2022-10-02T23:17:37.745Z,95.90
2022-10-02T23:20:12.295Z,95.99
2022-10-02T23:22:49.663Z,95.97
2022-10-02T23:25:22.828Z,96.21
2022-10-02T23:27:57.958Z,95.70
2022-10-02T23:30:25.250Z,95.11
2022-10-02T23:32:59.765Z,96.20
2022-10-02T23:35:31.713Z,95.22
2022-10-02T23:38:07.674Z,96.33
2022-10-02T23:41:15.240Z,96.21
2022-10-02T23:43:48.807Z,96.09
2022-10-02T23:46:19.964Z,96.46
2022-10-02T23:48:46.857Z,96.84
2022-10-02T23:51:17.413Z,96.28
2022-10-02T23:54:03.653Z,96.95
2022-10-02T23:57:01.362Z,96.80
2022-10-02T23:59:47.221Z,97.18
